createdAt,value
2022-12-31T00:00:25.093Z,9.22
2022-12-31T00:05:48.041Z,9.07
2022-12-31T00:10:51.151Z,8.98
2022-12-31T00:15:54.152Z,8.93
2022-12-31T00:20:57.267Z,8.84
2022-12-31T00:26:08.973Z,8.84
2022-12-31T00:31:18.368Z,9.03
2022-12-31T00:36:23.869Z,8.97
2022-12-31T00:41:27.816Z,8.75
2022-12-31T00:46:32.064Z,8.68
2022-12-31T00:51:35.273Z,8.04
2022-12-31T00:56:38.384Z,8.00
2022-12-31T01:01:42.881Z,8.16
2022-12-31T01:06:46.603Z,8.06
2022-12-31T01:11:51.901Z,7.96
2022-12-31T01:16:54.907Z,8.11
2022-12-31T01:21:58.221Z,8.38
2022-12-31T01:27:01.532Z,8.34
2022-12-31T01:32:05.422Z,8.62
2022-12-31T01:37:08.367Z,8.74
2022-12-31T01:42:12.388Z,8.89
2022-12-31T01:47:19.045Z,9.15
2022-12-31T01:52:34.487Z,8.88
2022-12-31T01:57:38.254Z,8.81
2022-12-31T02:02:41.433Z,8.66
2022-12-31T02:07:45.321Z,8.89
2022-12-31T02:12:48.947Z,8.78
2022-12-31T02:18:15.324Z,8.80
2022-12-31T02:23:36.566Z,8.92
2022-12-31T02:28:51.441Z,8.91
2022-12-31T02:34:06.531Z,8.93
2022-12-31T02:39:11.211Z,9.00
2022-12-31T02:44:37.222Z,9.12
2022-12-31T02:50:01.427Z,9.43
2022-12-31T02:55:10.370Z,9.15
2022-12-31T03:00:35.237Z,9.80
2022-12-31T03:05:42.608Z,9.17
2022-12-31T03:10:45.605Z,9.67
2022-12-31T03:15:48.766Z,9.88
2022-12-31T03:21:10.569Z,9.65
2022-12-31T03:26:13.568Z,10.34
2022-12-31T03:31:16.555Z,10.45
2022-12-31T03:36:19.581Z,10.33
2022-12-31T03:41:22.485Z,10.66
2022-12-31T03:46:25.389Z,10.67
2022-12-31T03:51:28.309Z,10.70
2022-12-31T03:56:31.301Z,10.82
2022-12-31T04:01:34.272Z,10.90
2022-12-31T04:06:37.313Z,10.59
2022-12-31T04:11:40.218Z,10.61
2022-12-31T04:16:44.122Z,11.06
2022-12-31T04:21:47.048Z,11.19
2022-12-31T04:26:50.465Z,10.84
2022-12-31T04:31:53.739Z,9.99
2022-12-31T04:36:56.948Z,10.18
2022-12-31T04:42:00.003Z,10.75
2022-12-31T04:47:03.001Z,10.73
2022-12-31T04:52:06.331Z,10.63
2022-12-31T04:57:09.266Z,10.65
2022-12-31T05:02:12.681Z,10.82
2022-12-31T05:07:15.954Z,10.68
2022-12-31T05:12:19.159Z,10.97
2022-12-31T05:17:22.065Z,10.96
2022-12-31T05:22:30.798Z,10.88
2022-12-31T05:27:34.226Z,10.72
2022-12-31T05:32:37.638Z,10.67
2022-12-31T05:37:40.851Z,11.08
2022-12-31T05:42:44.469Z,10.86
2022-12-31T05:47:47.491Z,10.99
2022-12-31T05:52:50.597Z,10.95
2022-12-31T05:57:53.907Z,11.16
2022-12-31T06:02:56.900Z,11.28
2022-12-31T06:08:00.012Z,11.04
2022-12-31T06:13:03.337Z,11.21
2022-12-31T06:18:06.791Z,11.59
2022-12-31T06:23:09.752Z,11.52
2022-12-31T06:28:19.678Z,11.53
2022-12-31T06:33:23.550Z,11.40
2022-12-31T06:38:28.389Z,11.54
2022-12-31T06:43:31.508Z,11.81
2022-12-31T06:48:35.029Z,11.72
2022-12-31T06:53:38.022Z,11.79
2022-12-31T06:58:41.646Z,12.14
2022-12-31T07:04:12.927Z,11.94
2022-12-31T07:09:22.683Z,11.86
2022-12-31T07:14:54.780Z,11.80
2022-12-31T07:20:06.802Z,11.63
2022-12-31T07:25:15.125Z,11.65
2022-12-31T07:30:21.596Z,11.60
2022-12-31T07:35:48.798Z,11.88
2022-12-31T07:41:09.763Z,11.74
2022-12-31T07:46:26.367Z,11.65
2022-12-31T07:51:30.054Z,11.63
2022-12-31T07:56:33.269Z,11.94
2022-12-31T08:02:01.525Z,12.25
2022-12-31T08:07:41.040Z,12.06
2022-12-31T08:12:47.248Z,12.26
2022-12-31T08:17:50.831Z,12.90
2022-12-31T08:23:10.074Z,13.50
2022-12-31T08:28:39.338Z,13.53
2022-12-31T08:34:05.523Z,14.00
2022-12-31T08:39:41.364Z,13.30
2022-12-31T08:44:55.849Z,12.86
2022-12-31T08:49:59.128Z,13.31
2022-12-31T08:55:02.952Z,13.83
2022-12-31T09:00:15.237Z,13.48
2022-12-31T09:05:43.429Z,13.14
2022-12-31T09:11:07.922Z,13.22
2022-12-31T09:16:32.365Z,13.30
2022-12-31T09:21:35.845Z,13.57
2022-12-31T09:26:50.912Z,13.82
2022-12-31T09:32:12.493Z,13.88
2022-12-31T09:37:21.897Z,14.06
2022-12-31T09:42:56.066Z,13.78
2022-12-31T09:48:17.302Z,13.68
2022-12-31T09:53:36.091Z,13.81
2022-12-31T09:58:52.159Z,13.86
2022-12-31T10:04:19.364Z,13.74
2022-12-31T10:09:53.598Z,13.54
2022-12-31T10:15:14.836Z,13.57
2022-12-31T10:20:43.360Z,13.61
2022-12-31T10:26:11.029Z,13.67
2022-12-31T10:31:35.948Z,13.76
2022-12-31T10:36:48.884Z,13.88
2022-12-31T10:42:26.601Z,13.77
2022-12-31T10:47:54.497Z,13.75
2022-12-31T10:53:06.521Z,14.01
2022-12-31T10:58:31.128Z,13.98
2022-12-31T11:03:59.120Z,13.75
2022-12-31T11:09:23.727Z,13.62
2022-12-31T11:14:55.718Z,13.57
2022-12-31T11:20:36.614Z,13.67
2022-12-31T11:25:45.730Z,13.52
2022-12-31T11:30:51.803Z,13.32
2022-12-31T11:36:29.060Z,13.38
2022-12-31T11:41:56.767Z,13.69
2022-12-31T11:47:21.139Z,13.75
2022-12-31T11:52:32.955Z,13.63
2022-12-31T11:57:38.331Z,13.61
2022-12-31T12:03:06.449Z,13.62
2022-12-31T12:08:11.944Z,13.53
2022-12-31T12:13:14.984Z,13.66
2022-12-31T12:18:42.362Z,13.89
2022-12-31T12:24:04.734Z,13.62
2022-12-31T12:29:32.506Z,13.77
2022-12-31T12:34:47.557Z,13.50
2022-12-31T12:40:02.394Z,13.67
2022-12-31T12:45:13.920Z,13.47
2022-12-31T12:50:20.881Z,13.77
2022-12-31T12:55:51.878Z,14.01
2022-12-31T13:01:28.729Z,14.06
2022-12-31T13:06:40.124Z,14.36
2022-12-31T13:12:21.455Z,14.16
2022-12-31T13:17:24.562Z,14.09
2022-12-31T13:22:40.272Z,14.16
2022-12-31T13:27:48.178Z,13.84
2022-12-31T13:33:19.149Z,14.10
2022-12-31T13:38:46.310Z,14.13
2022-12-31T13:44:13.806Z,14.34
2022-12-31T13:49:26.756Z,14.51
2022-12-31T13:54:45.668Z,14.60
2022-12-31T13:59:54.950Z,14.34
2022-12-31T14:05:06.690Z,14.34
2022-12-31T14:10:15.126Z,14.70
2022-12-31T14:15:18.040Z,14.76
2022-12-31T14:20:27.079Z,14.80
2022-12-31T14:25:49.329Z,14.58
2022-12-31T14:30:59.103Z,14.65
2022-12-31T14:36:40.102Z,14.71
2022-12-31T14:42:29.396Z,15.22
2022-12-31T14:47:48.880Z,15.16
2022-12-31T14:52:52.003Z,15.36
2022-12-31T15:03:34.504Z,15.34
2022-12-31T15:08:43.201Z,15.63
2022-12-31T15:14:07.818Z,15.59
2022-12-31T15:19:20.136Z,16.06
2022-12-31T15:24:27.141Z,15.89
2022-12-31T15:29:34.399Z,15.98
2022-12-31T15:34:37.459Z,15.92
2022-12-31T15:39:43.033Z,15.72
2022-12-31T15:44:55.548Z,16.01
2022-12-31T15:50:04.115Z,16.19
2022-12-31T15:55:15.691Z,16.32
2022-12-31T16:00:22.088Z,16.25
2022-12-31T16:05:27.650Z,16.28
2022-12-31T16:10:33.172Z,16.49
2022-12-31T16:15:37.085Z,16.17
2022-12-31T16:20:46.164Z,16.21
2022-12-31T16:25:52.674Z,16.47
2022-12-31T16:31:08.329Z,16.64
2022-12-31T16:36:23.474Z,16.68
2022-12-31T16:41:26.584Z,16.70
2022-12-31T16:46:32.198Z,16.70
2022-12-31T16:51:37.462Z,16.52
2022-12-31T16:56:43.202Z,16.53
2022-12-31T17:01:46.962Z,16.61
2022-12-31T17:06:50.244Z,16.67
2022-12-31T17:11:54.647Z,16.74
2022-12-31T17:17:06.501Z,16.75
2022-12-31T17:22:21.703Z,16.80
2022-12-31T17:27:27.639Z,16.73
2022-12-31T17:32:36.954Z,16.68
2022-12-31T17:37:39.993Z,16.44
2022-12-31T17:42:42.999Z,16.55
2022-12-31T17:47:49.089Z,16.48
2022-12-31T17:53:12.731Z,16.35
2022-12-31T17:58:29.431Z,16.38
2022-12-31T18:03:33.235Z,16.49
2022-12-31T18:08:36.329Z,16.62
2022-12-31T18:13:39.448Z,16.77
2022-12-31T18:18:42.663Z,16.70
2022-12-31T18:23:48.087Z,16.72
2022-12-31T18:28:51.739Z,16.75
2022-12-31T18:33:57.404Z,16.74
2022-12-31T18:39:00.618Z,16.47
2022-12-31T18:44:04.136Z,16.57
2022-12-31T18:49:07.446Z,16.46
2022-12-31T18:54:12.191Z,16.47
2022-12-31T18:59:15.202Z,16.46
2022-12-31T19:04:26.965Z,16.56
2022-12-31T19:09:45.044Z,16.25
2022-12-31T19:14:49.421Z,16.56
2022-12-31T19:19:52.414Z,16.54
2022-12-31T19:24:56.039Z,16.62
2022-12-31T19:30:00.691Z,16.51
2022-12-31T19:35:03.895Z,16.69
2022-12-31T19:40:13.005Z,16.77
2022-12-31T19:45:18.810Z,16.83
2022-12-31T19:50:28.076Z,16.90
2022-12-31T19:55:33.123Z,16.69
2022-12-31T20:00:36.337Z,16.88
2022-12-31T20:05:39.242Z,16.97
2022-12-31T20:10:42.966Z,16.84
2022-12-31T20:15:47.981Z,16.98
2022-12-31T20:20:55.887Z,16.95
2022-12-31T20:26:00.226Z,16.96
2022-12-31T20:31:12.071Z,17.04
2022-12-31T20:36:16.936Z,16.95
2022-12-31T20:41:22.640Z,16.88
2022-12-31T20:46:28.952Z,16.94
2022-12-31T20:51:34.974Z,16.96
2022-12-31T20:56:40.727Z,17.18
2022-12-31T21:02:19.230Z,17.03
2022-12-31T21:07:07.138Z,17.18
2022-12-31T21:12:31.951Z,17.13
2022-12-31T21:17:34.952Z,16.74
2022-12-31T21:22:38.063Z,16.77
2022-12-31T21:27:40.966Z,16.53
2022-12-31T21:32:43.971Z,16.62
2022-12-31T21:37:58.694Z,16.55
2022-12-31T21:43:04.028Z,16.72
2022-12-31T21:48:25.234Z,16.73
2022-12-31T21:53:36.153Z,17.05
2022-12-31T21:58:46.011Z,16.98
2022-12-31T22:03:49.267Z,16.72
2022-12-31T22:08:54.791Z,16.67
2022-12-31T22:13:57.893Z,16.75
2022-12-31T22:19:01.105Z,17.12
2022-12-31T22:24:05.549Z,16.89
2022-12-31T22:29:08.652Z,16.84
2022-12-31T22:34:11.556Z,17.10
2022-12-31T22:39:43.524Z,17.08
2022-12-31T22:44:39.186Z,17.11
2022-12-31T22:49:42.184Z,17.06
2022-12-31T22:54:45.190Z,17.14
2022-12-31T22:59:48.197Z,17.33
2022-12-31T23:04:51.202Z,17.23
2022-12-31T23:10:12.846Z,17.18
2022-12-31T23:15:34.487Z,16.86
2022-12-31T23:20:57.169Z,17.03
2022-12-31T23:26:01.996Z,16.70
2022-12-31T23:31:08.054Z,17.12
2022-12-31T23:36:11.194Z,17.11
2022-12-31T23:41:19.642Z,17.41
2022-12-31T23:46:22.670Z,17.49
2022-12-31T23:51:26.052Z,17.85
2022-12-31T23:56:29.169Z,17.85
